Airfield :
LOGIN :

Register | Disclaimer

   EN    FR    IT 

 










Legend :    VFR   Marginal VFR   IFR   Intensive IFR   Very Intensive IFR
Visi :
Ceiling :
>= 8 km
>= 3000ft
5 to 8 km
1000 to 3000 ft
1500m to 5 km
500 to 1000 ft
800 to 1500m
200 to 500 ft
< 800m
< 200 ft
Symbols :   Thunderstorms  Fog  Heavy snow  Heavy precipitations  Wind > 20 kt
SIGMETs :     Misc.  Thunderstorms  Icing  Turbulence  Mountain Waves  Volcanic Ashes






- Airport Elevation : 288 ft
- IATA code : BZZ


EGVN - RAF Brize Norton

CURRENT METAR :
  • 301650Z 29011KT 9999 FEW030 BKN070 17/12 Q1004 NOSIG

EXPIRED METARs :
  • 301620Z 29011KT 9999 FEW024 SCT042 BKN080 17/12 Q1003 NOSIG RMK BLACKBLU BLU
  • 301550Z 31011KT 9999 SCT024 BKN042 17/12 Q1003 BECMG FEW025 RMK BLACKWHT BECMG BLU
  • 301520Z 30012KT 9999 -SHRA SCT024 SCT050 BKN080 17/12 Q1002 TEMPO 5000 SHRA RMK BLACKWHT TEMPO WHT
  • 301450Z 29013G23KT 9999 SCT021 BKN090 17/12 Q1001 BECMG FEW022
  • 301420Z 29012G23KT 9999 SCT016 BKN021 17/13 Q1001 NOSIG RMK BLACKWHT WHT
  • 301350Z 30014G24KT 9999 5000S VCSH SCT013 SCT021 16/14 Q1000 BECMG 9999 NSW SCT015

TAF TAF EGVN
Valid from the 30 at 15:00 until the 31 at 15:00 UTC


301340Z 3015/3115 29015KT 9999 SCT025
TEMPO 3015/3019 5000 SHRA SCT012CB
PROB30
TEMPO 3015/3017 30018G28KT
TEMPO 3019/3103 SCT020
PROB30
TEMPO 3103/3109 SCT014
TEMPO 3109/3115 5000 SHRA SCT016CB
PROB30
TEMPO 3112/3115 3000 +SHRA



MET'MAP, your aeronautical weather chart ! - Copyright ORBIFLY December 2007 - Disclaimer

ORBIFLY MET'MAP TEAM :

Programming & Development : Alexandra Zaïnal
Concept & original design : Baudouin d'Aumeries
Assistance for programming : Marc-Olivier Méhu
Technical & hardware support : Manuel Goepfert

Contact : metmap@orbifly.com




SOURCES & CREDITS :

   NOAA